Terminal Aerodrome Forecast
Issued by NWS

Home | Current Version | Previous Version | Text Only | Print | Product List | Glossary On
Versions: 1 2 3 4 5 6 7 8 9 10 11 12 13 14 15 16 17 18 19 20 21 22 23 24
000
FTUS43 KPAH 211720
TAFCGI
TAF
KCGI 211720Z 2118/2218 10006KT P6SM SCT025 OVC040
      TEMPO 2119/2121 BKN025
     FM212100 06004KT P6SM OVC015
     FM220400 00000KT 4SM BR OVC010
      TEMPO 2209/2212 2SM BR OVC008
     FM221500 18004KT P6SM SCT025 BKN050=

USA.gov is the U.S. government's official web portal to all federal, state and local government web resources and services.